Time;durP1;ratioP1;P1;durP2;ratioP2;P2;SDS_P1;SDS_P2;PMS_P1;PMS_P2;Temp;Humidity;BMP_temperature;BMP_pressure;BME280_temperature;BME280_humidity;BME280_pressure;Samples;Min_cycle;Max_cycle;Signal;HPM_P1;HPM_P2
2023/10/13 00:00:36;;;;;;;36.40;31.13;;;;;22.10;100191.00;;;;2074821;28;21654;-56
2023/10/13 00:01:37;;;;;;;39.47;34.00;;;;;22.10;100185.00;;;;2074493;28;20226;-58
2023/10/13 00:02:39;;;;;;;36.42;31.90;;;;;22.10;100078.00;;;;2061299;28;20214;-57
2023/10/13 00:03:40;;;;;;;35.80;29.88;;;;;22.10;100186.00;;;;2072407;28;20266;-59
2023/10/13 00:04:41;;;;;;;35.60;31.40;;;;;22.10;100184.00;;;;2074124;28;20214;-58
2023/10/13 00:05:42;;;;;;;35.92;31.35;;;;;22.10;100187.00;;;;2078509;28;20599;-59
2023/10/13 00:06:42;;;;;;;33.33;29.30;;;;;22.10;100189.00;;;;2073274;28;20321;-57
2023/10/13 00:07:43;;;;;;;38.87;32.53;;;;;22.10;100189.00;;;;2062328;28;20233;-57
2023/10/13 00:08:43;;;;;;;34.33;30.30;;;;;22.10;100187.00;;;;2080994;28;20228;-57
2023/10/13 00:09:43;;;;;;;34.90;30.27;;;;;22.10;100191.00;;;;2073263;28;20242;-57
2023/10/13 00:10:44;;;;;;;36.00;30.87;;;;;22.10;100193.00;;;;2074861;28;20308;-57
2023/10/13 00:11:47;;;;;;;33.93;30.20;;;;;22.10;100186.00;;;;2075540;28;20705;-57
2023/10/13 00:12:49;;;;;;;34.88;28.08;;;;;22.00;100188.00;;;;2062066;28;20229;-57
2023/10/13 00:13:54;;;;;;;34.38;30.45;;;;;22.10;100188.00;;;;2073084;28;20214;-57
2023/10/13 00:14:54;;;;;;;32.75;29.27;;;;;22.10;100076.00;;;;2067713;28;20219;-58
2023/10/13 00:15:58;;;;;;;33.23;29.57;;;;;22.10;100176.00;;;;2074105;28;20314;-57
2023/10/13 00:17:04;;;;;;;31.45;27.25;;;;;22.10;100180.00;;;;2071912;28;20268;-55
2023/10/13 00:18:12;;;;;;;31.25;27.95;;;;;22.10;100172.00;;;;2056425;28;20203;-56
2023/10/13 00:19:13;;;;;;;32.88;29.10;;;;;22.10;100169.00;;;;2075605;28;21008;-59
2023/10/13 00:20:17;;;;;;;34.70;30.25;;;;;22.10;100171.00;;;;2073702;28;20223;-57
2023/10/13 00:21:30;;;;;;;29.92;26.70;;;;;22.10;100158.00;;;;2077607;28;20229;-55
2023/10/13 00:22:31;;;;;;;30.83;26.08;;;;;22.10;100204.00;;;;2063886;28;20210;-59
2023/10/13 00:23:32;;;;;;;28.43;25.17;;;;;22.10;100156.00;;;;2076681;28;20698;-56
2023/10/13 00:24:39;;;;;;;31.25;27.75;;;;;22.10;100153.00;;;;2066939;28;20226;-57
2023/10/13 00:25:49;;;;;;;31.58;27.25;;;;;22.10;100147.00;;;;2066251;28;20215;-56
2023/10/13 00:26:49;;;;;;;26.48;23.60;;;;;21.50;100153.00;;;;2065635;28;20953;-56
2023/10/13 00:27:52;;;;;;;32.83;28.00;;;;;22.10;100154.00;;;;2056982;28;20219;-57
2023/10/13 00:28:59;;;;;;;30.45;27.23;;;;;22.10;100158.00;;;;2067166;28;20270;-56
2023/10/13 00:31:21;;;;;;;30.80;25.42;;;;;22.10;100151.00;;;;2063702;28;20207;-56
2023/10/13 00:32:26;;;;;;;30.88;26.25;;;;;22.10;100154.00;;;;2066346;28;20211;-56
2023/10/13 00:33:27;;;;;;;27.58;23.52;;;;;22.10;100152.00;;;;2063789;28;20751;-57
2023/10/13 00:34:27;;;;;;;24.53;21.07;;;;;22.10;100152.00;;;;2070758;28;20206;-56
2023/10/13 00:35:29;;;;;;;29.30;25.00;;;;;22.10;100140.00;;;;2076422;28;20217;-58
2023/10/13 00:36:31;;;;;;;26.48;23.63;;;;;22.10;100149.00;;;;2072736;28;20206;-58
2023/10/13 00:37:42;;;;;;;27.60;24.48;;;;;22.10;100146.00;;;;2066552;28;20210;-59
2023/10/13 00:38:47;;;;;;;29.85;24.83;;;;;22.10;100140.00;;;;2072310;28;20214;-56
2023/10/13 00:39:52;;;;;;;28.02;24.98;;;;;22.10;100139.00;;;;2071616;28;20213;-59
2023/10/13 00:41:03;;;;;;;26.40;23.13;;;;;22.10;100140.00;;;;2074629;28;20280;-55
2023/10/13 00:42:08;;;;;;;29.85;24.55;;;;;22.10;100139.00;;;;2079737;28;20225;-58
2023/10/13 00:44:28;;;;;;;29.98;23.95;;;;;22.10;100140.00;;;;2074256;28;20217;-56
2023/10/13 00:45:29;;;;;;;23.63;20.63;;;;;22.00;100142.00;;;;2069829;28;20230;-55
2023/10/13 00:46:33;;;;;;;27.63;24.02;;;;;22.00;100144.00;;;;2072107;28;20588;-57
2023/10/13 00:47:40;;;;;;;23.08;20.58;;;;;22.00;100137.00;;;;2064517;28;20225;-57
2023/10/13 00:48:54;;;;;;;27.17;23.23;;;;;22.10;100137.00;;;;2077937;28;20304;-56
2023/10/13 00:49:56;;;;;;;24.52;21.95;;;;;22.10;100141.00;;;;2057805;28;20238;-59
2023/10/13 00:50:57;;;;;;;25.30;22.20;;;;;22.10;100161.00;;;;2063490;28;20222;-56
2023/10/13 00:51:57;;;;;;;22.65;20.15;;;;;22.00;100126.00;;;;2064568;28;20284;-57
2023/10/13 00:52:58;;;;;;;26.30;23.47;;;;;22.00;100125.00;;;;2059223;28;20289;-57
2023/10/13 00:54:07;;;;;;;24.80;22.03;;;;;22.10;100132.00;;;;2071907;28;20273;-58
2023/10/13 00:55:08;;;;;;;26.00;21.15;;;;;22.10;100130.00;;;;2065050;28;20262;-56
2023/10/13 00:56:18;;;;;;;23.30;20.42;;;;;22.10;100135.00;;;;2065482;28;20211;-57
2023/10/13 00:57:27;;;;;;;24.70;20.92;;;;;22.10;100101.00;;;;2060681;28;20210;-58
2023/10/13 00:58:28;;;;;;;24.40;20.83;;;;;22.10;100127.00;;;;2067541;28;20215;-59
2023/10/13 00:59:33;;;;;;;27.35;21.13;;;;;22.10;100124.00;;;;2072721;28;20194;-59
2023/10/13 01:00:46;;;;;;;22.92;20.45;;;;;22.10;100128.00;;;;2069666;28;20199;-56
2023/10/13 01:01:53;;;;;;;22.33;19.75;;;;;22.10;100129.00;;;;2066296;28;20642;-57
2023/10/13 01:02:57;;;;;;;25.33;21.95;;;;;22.10;100113.00;;;;2060514;28;20222;-56
2023/10/13 01:04:00;;;;;;;23.23;19.85;;;;;22.10;100113.00;;;;2058240;28;20238;-58
2023/10/13 01:05:02;;;;;;;24.25;21.27;;;;;22.10;100088.00;;;;2041383;28;20245;-57
2023/10/13 01:06:03;;;;;;;22.23;19.58;;;;;22.10;100058.00;;;;2059821;28;20215;-57
2023/10/13 01:07:04;;;;;;;23.80;20.47;;;;;22.10;100149.00;;;;2069289;28;20281;-58
2023/10/13 01:08:04;;;;;;;23.17;20.00;;;;;22.10;100117.00;;;;2067705;28;20689;-58
2023/10/13 01:09:14;;;;;;;22.70;20.30;;;;;22.10;100104.00;;;;2073073;28;20985;-58
2023/10/13 01:10:14;;;;;;;21.67;19.38;;;;;22.10;100109.00;;;;2071244;28;20217;-56
2023/10/13 01:11:15;;;;;;;21.77;19.40;;;;;22.00;100103.00;;;;2077098;28;20246;-57
2023/10/13 01:12:15;;;;;;;23.20;20.73;;;;;22.00;100108.00;;;;2065775;28;20752;-57
2023/10/13 01:13:17;;;;;;;18.93;16.93;;;;;22.00;100146.00;;;;2059163;28;21018;-57
2023/10/13 01:14:18;;;;;;;22.92;20.15;;;;;22.00;100067.00;;;;2057470;28;20223;-56
2023/10/13 01:15:21;;;;;;;20.27;18.23;;;;;22.10;100129.00;;;;2056314;28;20212;-56
2023/10/13 01:16:23;;;;;;;20.55;17.77;;;;;22.00;100110.00;;;;2054453;28;20227;-59
2023/10/13 01:17:23;;;;;;;22.35;19.50;;;;;22.00;100102.00;;;;2046722;28;20224;-57
2023/10/13 01:18:28;;;;;;;22.70;19.83;;;;;22.10;100113.00;;;;2073683;28;20248;-57
2023/10/13 01:19:29;;;;;;;23.08;19.67;;;;;22.00;100105.00;;;;2073767;28;20219;-56
2023/10/13 01:20:29;;;;;;;21.83;19.40;;;;;22.00;100113.00;;;;2065706;28;20691;-56
2023/10/13 01:21:29;;;;;;;20.70;18.20;;;;;22.00;100111.00;;;;2077728;28;20220;-58
2023/10/13 01:22:31;;;;;;;20.13;17.93;;;;;22.00;100054.00;;;;2064040;28;20206;-57
2023/10/13 01:23:37;;;;;;;21.00;18.63;;;;;22.00;100104.00;;;;2072217;28;20266;-59
2023/10/13 01:24:38;;;;;;;19.88;17.85;;;;;22.00;100095.00;;;;2071596;28;20229;-57
2023/10/13 01:25:40;;;;;;;19.37;17.37;;;;;22.00;100099.00;;;;2072955;28;20225;-56
2023/10/13 01:26:42;;;;;;;20.02;17.42;;;;;22.00;100101.00;;;;2072177;28;20214;-59
2023/10/13 01:27:42;;;;;;;21.35;17.83;;;;;22.10;100102.00;;;;2066957;28;20240;-59
2023/10/13 01:28:46;;;;;;;19.57;16.93;;;;;22.10;100061.00;;;;2070504;28;20218;-56
2023/10/13 01:30:05;;;;;;;18.98;16.55;;;;;22.10;100086.00;;;;2069251;28;20238;-56
2023/10/13 01:31:08;;;;;;;19.13;16.65;;;;;22.00;100097.00;;;;2075773;28;20244;-56
2023/10/13 01:32:12;;;;;;;18.08;16.17;;;;;22.00;100092.00;;;;2067049;28;20695;-57
2023/10/13 01:33:14;;;;;;;18.75;16.75;;;;;22.10;100097.00;;;;2068497;28;20217;-56
2023/10/13 01:34:24;;;;;;;18.70;16.77;;;;;22.00;100094.00;;;;2079093;28;21266;-59
2023/10/13 01:35:27;;;;;;;21.25;17.30;;;;;22.00;100091.00;;;;2071277;28;20224;-57
2023/10/13 01:36:27;;;;;;;18.30;16.40;;;;;22.00;100088.00;;;;2064308;28;20234;-56
2023/10/13 01:37:28;;;;;;;17.23;15.00;;;;;22.00;100097.00;;;;2057989;28;20199;-56
2023/10/13 01:38:32;;;;;;;17.87;16.00;;;;;22.10;100085.00;;;;2071731;28;20217;-56
2023/10/13 01:39:32;;;;;;;17.42;15.52;;;;;22.10;100080.00;;;;2080678;28;20251;-57
2023/10/13 01:40:34;;;;;;;17.73;15.10;;;;;22.00;100084.00;;;;2067171;28;20257;-59
2023/10/13 01:41:37;;;;;;;16.67;14.85;;;;;22.00;100084.00;;;;2073132;28;20210;-57
2023/10/13 01:42:37;;;;;;;18.05;15.80;;;;;22.00;100081.00;;;;2065930;28;20232;-55
2023/10/13 01:43:37;;;;;;;17.37;15.40;;;;;22.00;100032.00;;;;2068249;28;20217;-56
2023/10/13 01:44:38;;;;;;;16.77;14.97;;;;;22.00;100082.00;;;;2067849;28;20202;-55
2023/10/13 01:45:46;;;;;;;17.80;15.37;;;;;22.00;100075.00;;;;2071158;28;20218;-56
2023/10/13 01:46:47;;;;;;;16.95;15.15;;;;;22.00;100069.00;;;;2078277;28;20225;-58
2023/10/13 01:47:50;;;;;;;16.53;14.73;;;;;22.00;100080.00;;;;2062505;28;20226;-55
2023/10/13 01:48:54;;;;;;;17.80;15.90;;;;;22.00;100077.00;;;;2072302;28;20499;-62
2023/10/13 01:49:54;;;;;;;16.13;14.43;;;;;22.00;100066.00;;;;2077840;28;20224;-56
2023/10/13 01:50:59;;;;;;;15.80;14.10;;;;;22.00;100066.00;;;;2071506;28;20206;-56
2023/10/13 01:52:03;;;;;;;16.23;14.63;;;;;22.00;100081.00;;;;2067063;28;20223;-58
2023/10/13 01:53:12;;;;;;;16.73;14.45;;;;;22.00;100078.00;;;;2069431;28;20564;-58
2023/10/13 01:54:13;;;;;;;16.45;14.32;;;;;22.00;100073.00;;;;2071988;28;20323;-56
2023/10/13 01:55:14;;;;;;;14.53;12.90;;;;;22.10;100069.00;;;;2074841;28;20218;-57
2023/10/13 01:56:14;;;;;;;15.63;14.02;;;;;22.00;99919.00;;;;2074440;28;20244;-58
2023/10/13 01:57:17;;;;;;;15.73;13.87;;;;;22.00;100067.00;;;;2071897;28;20686;-55
2023/10/13 01:58:22;;;;;;;16.33;14.25;;;;;22.00;100043.00;;;;2064939;28;20226;-59
2023/10/13 01:59:22;;;;;;;17.60;15.10;;;;;22.00;100060.00;;;;2064322;28;20742;-56
2023/10/13 02:00:25;;;;;;;15.67;14.07;;;;;22.10;100062.00;;;;2071745;28;20238;-56
2023/10/13 02:01:34;;;;;;;13.85;12.45;;;;;22.10;100055.00;;;;2072301;28;20249;-57
2023/10/13 02:02:34;;;;;;;15.02;12.82;;;;;22.00;100054.00;;;;2056380;28;20207;-59
2023/10/13 02:03:40;;;;;;;16.30;13.27;;;;;22.00;100049.00;;;;2067797;28;20238;-59
2023/10/13 02:04:56;;;;;;;13.52;12.20;;;;;22.00;100033.00;;;;2063950;28;21252;-56
2023/10/13 02:06:03;;;;;;;14.95;13.30;;;;;22.10;100058.00;;;;2074073;28;20236;-59
2023/10/13 02:07:03;;;;;;;15.70;12.45;;;;;22.00;100047.00;;;;2066157;28;20278;-57
2023/10/13 02:08:04;;;;;;;15.80;13.70;;;;;22.00;100045.00;;;;2060030;28;20222;-58
2023/10/13 02:09:16;;;;;;;13.37;11.53;;;;;22.00;100047.00;;;;2075786;28;20224;-56
2023/10/13 02:10:16;;;;;;;15.30;13.70;;;;;22.10;100045.00;;;;2070138;28;20222;-57
2023/10/13 02:11:18;;;;;;;14.90;13.40;;;;;22.00;100039.00;;;;2068840;28;20292;-57
2023/10/13 02:12:21;;;;;;;15.68;12.40;;;;;22.00;99997.00;;;;2061739;28;20603;-57
2023/10/13 02:13:22;;;;;;;14.82;13.23;;;;;22.00;100036.00;;;;2071656;28;20229;-58
2023/10/13 02:14:25;;;;;;;13.77;12.35;;;;;22.00;100034.00;;;;2073529;28;20249;-57
2023/10/13 02:15:26;;;;;;;14.50;12.57;;;;;22.00;100043.00;;;;2074457;28;20221;-56
2023/10/13 02:16:27;;;;;;;15.33;13.13;;;;;22.00;100035.00;;;;2079686;28;20256;-56
2023/10/13 02:17:27;;;;;;;13.40;12.00;;;;;22.00;100036.00;;;;2069183;28;20213;-58
2023/10/13 02:18:27;;;;;;;12.90;11.40;;;;;22.00;100031.00;;;;2064191;28;20214;-59
2023/10/13 02:19:28;;;;;;;13.63;11.47;;;;;22.00;100028.00;;;;2063116;28;20596;-56
2023/10/13 02:20:30;;;;;;;12.88;11.32;;;;;22.00;100027.00;;;;2065846;28;20210;-58
2023/10/13 02:21:38;;;;;;;13.05;11.73;;;;;22.00;100024.00;;;;2067438;28;20214;-56
2023/10/13 02:22:39;;;;;;;12.95;11.63;;;;;22.00;99976.00;;;;2060702;28;20238;-58
2023/10/13 02:23:59;;;;;;;13.27;11.80;;;;;22.00;99953.00;;;;2069783;28;20198;-55
2023/10/13 02:25:06;;;;;;;13.20;11.70;;;;;22.00;100027.00;;;;2080456;28;20479;-58
2023/10/13 02:26:14;;;;;;;12.60;11.00;;;;;22.00;100014.00;;;;2075756;28;20241;-55
2023/10/13 02:27:15;;;;;;;13.15;11.55;;;;;22.00;100023.00;;;;2076483;28;20759;-56
2023/10/13 02:28:21;;;;;;;12.40;11.20;;;;;22.00;100016.00;;;;2062403;28;20218;-56
2023/10/13 02:29:21;;;;;;;13.10;11.45;;;;;22.00;100022.00;;;;2064379;28;20666;-59
2023/10/13 02:30:23;;;;;;;13.77;10.60;;;;;22.00;100017.00;;;;2065176;28;20225;-57
2023/10/13 02:31:27;;;;;;;12.88;10.77;;;;;22.00;100023.00;;;;2072042;28;20226;-59
2023/10/13 02:32:30;;;;;;;13.75;12.40;;;;;22.00;100021.00;;;;2038390;28;20270;-57
2023/10/13 02:33:30;;;;;;;12.30;11.00;;;;;22.00;100009.00;;;;2055614;28;20222;-59
2023/10/13 02:34:31;;;;;;;11.67;10.57;;;;;22.00;100009.00;;;;2074760;28;20294;-56
2023/10/13 02:35:41;;;;;;;11.37;10.17;;;;;22.00;100004.00;;;;2070600;28;20211;-57
2023/10/13 02:36:48;;;;;;;11.77;9.85;;;;;22.00;100007.00;;;;2067581;28;20450;-57
2023/10/13 02:37:55;;;;;;;12.13;10.82;;;;;22.00;99764.00;;;;2060083;28;20214;-58
2023/10/13 02:38:57;;;;;;;13.13;10.35;;;;;22.00;99999.00;;;;2063899;28;21115;-57
2023/10/13 02:39:58;;;;;;;11.20;10.10;;;;;22.00;100004.00;;;;2076555;28;20217;-59
2023/10/13 02:41:05;;;;;;;12.40;10.90;;;;;22.00;100009.00;;;;2072719;28;20709;-59
2023/10/13 02:42:06;;;;;;;13.07;10.20;;;;;22.00;100007.00;;;;2075561;28;20311;-57
2023/10/13 02:43:07;;;;;;;11.55;10.40;;;;;22.00;99842.00;;;;2060214;28;20218;-58
2023/10/13 02:44:08;;;;;;;12.23;11.00;;;;;22.00;99995.00;;;;2067610;28;20214;-56
2023/10/13 02:45:11;;;;;;;10.75;9.65;;;;;22.00;100002.00;;;;2058041;28;20210;-58
2023/10/13 02:46:11;;;;;;;11.90;10.68;;;;;22.00;99995.00;;;;2060626;28;20305;-59
2023/10/13 02:47:14;;;;;;;12.03;10.83;;;;;22.00;99998.00;;;;2066444;28;20229;-56
2023/10/13 02:48:17;;;;;;;12.55;11.00;;;;;22.00;99993.00;;;;2057962;28;20266;-56
2023/10/13 02:49:19;;;;;;;11.45;10.25;;;;;22.00;99993.00;;;;2068014;28;20238;-56
2023/10/13 02:50:24;;;;;;;10.30;9.20;;;;;22.00;99983.00;;;;2068819;28;20216;-59
2023/10/13 02:51:36;;;;;;;10.85;9.75;;;;;22.00;99989.00;;;;2069787;28;20312;-58
2023/10/13 02:52:41;;;;;;;11.75;10.55;;;;;22.00;99992.00;;;;2053214;28;20720;-58
2023/10/13 02:53:46;;;;;;;10.45;8.90;;;;;22.00;99991.00;;;;2063639;28;20292;-58
2023/10/13 02:54:47;;;;;;;13.10;10.32;;;;;22.00;99981.00;;;;2066658;28;20237;-56
2023/10/13 02:55:53;;;;;;;11.03;9.77;;;;;22.00;99975.00;;;;2065621;28;20225;-58
2023/10/13 02:57:03;;;;;;;11.73;9.68;;;;;22.00;99985.00;;;;2060363;28;20219;-57
2023/10/13 02:58:04;;;;;;;10.73;9.60;;;;;22.00;99982.00;;;;2050133;28;20213;-58
2023/10/13 02:59:08;;;;;;;12.93;11.17;;;;;22.00;99977.00;;;;2066857;28;20225;-57
2023/10/13 03:00:15;;;;;;;11.02;9.93;;;;;22.00;99980.00;;;;2061929;28;20257;-56
2023/10/13 03:01:18;;;;;;;10.25;9.25;;;;;22.00;100012.00;;;;2068833;28;20213;-56
2023/10/13 03:02:25;;;;;;;11.20;10.05;;;;;22.00;99985.00;;;;2053220;28;20297;-58
2023/10/13 03:03:29;;;;;;;11.85;9.90;;;;;22.00;99976.00;;;;2061832;28;20312;-56
2023/10/13 03:04:30;;;;;;;9.98;8.90;;;;;22.00;99982.00;;;;2062168;28;20224;-58
2023/10/13 03:05:35;;;;;;;10.60;9.13;;;;;22.00;99979.00;;;;2074137;28;20217;-57
2023/10/13 03:06:36;;;;;;;10.52;9.35;;;;;22.00;100018.00;;;;2066413;28;20554;-56
2023/10/13 03:07:37;;;;;;;10.43;9.35;;;;;22.00;99973.00;;;;2062590;28;20225;-56
2023/10/13 03:08:38;;;;;;;10.83;9.70;;;;;22.00;99973.00;;;;2073447;28;20214;-59
2023/10/13 03:09:39;;;;;;;10.02;9.02;;;;;22.00;99967.00;;;;2064900;28;20465;-56
2023/10/13 03:10:46;;;;;;;10.50;9.40;;;;;22.00;99968.00;;;;2068401;28;20624;-59
2023/10/13 03:11:49;;;;;;;11.32;9.18;;;;;22.00;99956.00;;;;2072146;28;20225;-55
2023/10/13 03:12:51;;;;;;;10.23;9.10;;;;;22.00;99958.00;;;;2060661;28;20715;-58
2023/10/13 03:13:52;;;;;;;11.15;8.57;;;;;22.00;99966.00;;;;2067599;28;20772;-58
2023/10/13 03:14:57;;;;;;;10.05;9.05;;;;;22.00;99967.00;;;;2069951;28;20210;-58
2023/10/13 03:15:57;;;;;;;9.45;8.45;;;;;22.00;99964.00;;;;2067635;28;20252;-57
2023/10/13 03:17:03;;;;;;;9.50;8.60;;;;;22.00;99956.00;;;;2068266;28;20288;-57
2023/10/13 03:18:03;;;;;;;9.80;8.32;;;;;22.00;99952.00;;;;2044977;28;20598;-56
2023/10/13 03:19:07;;;;;;;10.07;8.23;;;;;22.00;99952.00;;;;2055078;28;20239;-58
2023/10/13 03:20:11;;;;;;;10.18;7.45;;;;;22.00;99954.00;;;;2060765;28;20254;-58
2023/10/13 03:21:13;;;;;;;9.65;8.65;;;;;22.00;99954.00;;;;2058091;28;20215;-56
2023/10/13 03:22:16;;;;;;;10.10;8.85;;;;;22.00;99953.00;;;;2052783;28;20216;-57
2023/10/13 03:23:16;;;;;;;9.45;8.50;;;;;22.00;99949.00;;;;2057642;28;20778;-57
2023/10/13 03:24:22;;;;;;;9.53;8.63;;;;;22.00;99945.00;;;;2071175;28;20248;-57
2023/10/13 03:26:25;;;;;;;9.43;7.88;;;;;22.00;99941.00;;;;2064324;28;21034;-58
2023/10/13 03:27:39;;;;;;;8.93;8.13;;;;;22.00;99941.00;;;;2062299;28;20222;-57
2023/10/13 03:28:39;;;;;;;9.63;8.63;;;;;22.00;99946.00;;;;2063601;28;20237;-58
2023/10/13 03:29:43;;;;;;;8.37;7.47;;;;;22.00;99944.00;;;;2060472;28;20234;-57
2023/10/13 03:30:43;;;;;;;11.18;8.52;;;;;22.00;99948.00;;;;2061426;28;20954;-58
2023/10/13 03:31:45;;;;;;;9.80;8.60;;;;;22.00;99945.00;;;;2062529;28;20214;-57
2023/10/13 03:32:53;;;;;;;8.88;7.97;;;;;22.00;99938.00;;;;2053788;28;20238;-58
2023/10/13 03:33:59;;;;;;;8.93;8.05;;;;;22.00;99932.00;;;;2065071;28;20225;-57
2023/10/13 03:36:05;;;;;;;8.50;7.30;;;;;22.00;99723.00;;;;2070258;28;20606;-60
2023/10/13 03:37:17;;;;;;;8.90;8.00;;;;;22.00;99920.00;;;;2070086;28;20233;-57
2023/10/13 03:38:18;;;;;;;9.30;8.40;;;;;22.00;99929.00;;;;2074085;28;20275;-58
2023/10/13 03:39:18;;;;;;;9.10;8.10;;;;;22.00;99915.00;;;;2062362;28;20679;-57
2023/10/13 03:41:24;;;;;;;8.30;7.40;;;;;22.00;99935.00;;;;2069689;28;20214;-57
2023/10/13 03:42:25;;;;;;;8.60;7.80;;;;;22.00;99926.00;;;;2061899;28;20222;-57
2023/10/13 03:43:28;;;;;;;8.47;7.57;;;;;22.00;99927.00;;;;2072755;28;20553;-57
2023/10/13 03:44:30;;;;;;;8.50;7.57;;;;;22.00;99920.00;;;;2069514;28;20210;-57
2023/10/13 03:45:39;;;;;;;9.07;8.07;;;;;22.00;99921.00;;;;2075683;28;20678;-59
2023/10/13 03:46:41;;;;;;;8.70;7.80;;;;;22.00;99916.00;;;;2069050;28;20235;-58
2023/10/13 03:47:45;;;;;;;8.48;7.43;;;;;22.00;99908.00;;;;2060438;28;20226;-58
2023/10/13 03:48:52;;;;;;;8.75;7.35;;;;;22.00;99912.00;;;;2073895;28;20293;-57
2023/10/13 03:50:14;;;;;;;8.00;7.20;;;;;22.00;99902.00;;;;2070915;28;20222;-57
2023/10/13 03:51:17;;;;;;;8.45;7.43;;;;;22.00;99899.00;;;;2077657;28;20763;-58
2023/10/13 03:52:22;;;;;;;8.88;7.95;;;;;22.00;99907.00;;;;2060866;28;20607;-58
2023/10/13 03:53:25;;;;;;;8.25;7.43;;;;;22.00;99901.00;;;;2073511;28;20309;-57
2023/10/13 03:54:29;;;;;;;7.82;7.05;;;;;22.00;99902.00;;;;2069829;28;20264;-57
2023/10/13 03:55:30;;;;;;;9.18;7.45;;;;;22.00;99899.00;;;;2071918;28;20682;-58
2023/10/13 03:56:39;;;;;;;7.73;7.00;;;;;22.00;99892.00;;;;2072821;28;20207;-58
2023/10/13 03:57:39;;;;;;;8.30;7.47;;;;;22.00;99893.00;;;;2061142;28;20300;-58
2023/10/13 03:58:45;;;;;;;9.10;7.80;;;;;22.00;99882.00;;;;2069061;28;20222;-58
2023/10/13 03:59:48;;;;;;;8.52;7.18;;;;;22.00;99889.00;;;;2068456;28;20222;-58
2023/10/13 04:00:49;;;;;;;8.38;7.38;;;;;22.00;99886.00;;;;2068185;28;20210;-58
2023/10/13 04:01:58;;;;;;;8.80;7.85;;;;;22.00;99886.00;;;;2062960;28;20268;-58
2023/10/13 04:04:12;;;;;;;8.80;7.90;;;;;22.00;99878.00;;;;2060663;28;20599;-61
2023/10/13 04:05:30;;;;;;;7.70;6.90;;;;;22.00;99882.00;;;;2068368;28;20257;-58
2023/10/13 04:14:20;;;;;;;7.35;6.18;;;;;22.00;99863.00;;;;2051838;28;20219;-58
2023/10/13 04:17:26;;;;;;;7.05;6.35;;;;;22.00;99855.00;;;;2062430;28;20233;-57
2023/10/13 04:21:18;;;;;;;7.38;6.68;;;;;22.00;99856.00;;;;2062690;28;20310;-58
2023/10/13 04:22:20;;;;;;;7.95;6.95;;;;;22.00;99850.00;;;;2057677;28;20221;-57
2023/10/13 04:23:26;;;;;;;7.43;5.90;;;;;22.00;99845.00;;;;2066857;28;20225;-57
2023/10/13 04:25:00;;;;;;;7.55;6.20;;;;;22.00;99847.00;;;;2062299;28;20211;-58
2023/10/13 04:26:08;;;;;;;7.50;6.60;;;;;22.00;99840.00;;;;2066874;28;20210;-58
2023/10/13 04:29:27;;;;;;;8.00;6.00;;;;;22.00;99835.00;;;;2064386;28;20222;-58
2023/10/13 04:30:38;;;;;;;7.43;6.25;;;;;22.00;99834.00;;;;2072887;28;20241;-58
2023/10/13 04:31:55;;;;;;;6.93;6.22;;;;;22.00;99829.00;;;;2067699;28;20579;-57
2023/10/13 04:34:19;;;;;;;6.25;5.65;;;;;22.00;99835.00;;;;2074209;28;20827;-57
2023/10/13 04:35:24;;;;;;;6.35;5.75;;;;;22.00;99823.00;;;;2068767;28;20276;-57
2023/10/13 04:36:46;;;;;;;6.72;6.13;;;;;22.00;99820.00;;;;2069082;28;20230;-58
2023/10/13 04:37:54;;;;;;;7.55;6.75;;;;;22.00;99820.00;;;;2061890;28;20220;-58
2023/10/13 04:38:56;;;;;;;6.20;5.50;;;;;22.00;99819.00;;;;2064832;28;20588;-58
2023/10/13 04:40:07;;;;;;;6.97;5.90;;;;;22.00;99813.00;;;;2058064;28;20591;-57
2023/10/13 04:41:22;;;;;;;6.40;5.80;;;;;22.00;99821.00;;;;2075022;28;20217;-58
2023/10/13 04:43:32;;;;;;;6.30;5.80;;;;;22.00;99818.00;;;;2068460;28;20315;-58
2023/10/13 04:44:04;;;;;;;8.57;6.05;;;;;22.00;99810.00;;;;2069651;28;20265;-57
2023/10/13 04:45:27;;;;;;;7.10;6.22;;;;;22.00;99803.00;;;;2071340;28;20213;-61
2023/10/13 04:47:17;;;;;;;7.32;6.15;;;;;22.00;99819.00;;;;2071288;28;20217;-58
2023/10/13 04:47:57;;;;;;;6.88;5.88;;;;;22.00;99802.00;;;;2059580;28;20242;-58
2023/10/13 04:49:00;;;;;;;6.30;5.70;;;;;22.00;99794.00;;;;2069866;28;20676;-57
2023/10/13 04:50:05;;;;;;;7.30;5.97;;;;;22.00;99795.00;;;;2069657;28;20641;-57
2023/10/13 04:51:34;;;;;;;6.85;5.85;;;;;22.00;99775.00;;;;2063538;28;20222;-57
2023/10/13 04:54:25;;;;;;;6.13;5.53;;;;;22.00;99810.00;;;;2068269;28;20218;-57
2023/10/13 04:57:20;;;;;;;6.05;5.38;;;;;22.00;99799.00;;;;2074909;28;20303;-57
2023/10/13 04:59:14;;;;;;;5.97;5.38;;;;;22.00;99804.00;;;;2061575;28;20674;-57
2023/10/13 04:59:38;;;;;;;7.45;5.80;;;;;22.00;99823.00;;;;2067440;28;20217;-58
2023/10/13 05:01:23;;;;;;;6.22;5.63;;;;;22.00;99798.00;;;;2075555;28;20736;-58
2023/10/13 05:02:43;;;;;;;6.13;5.53;;;;;22.00;99796.00;;;;2066111;28;20215;-59
2023/10/13 05:04:18;;;;;;;7.20;5.60;;;;;22.00;99788.00;;;;2067611;28;20265;-58
2023/10/13 05:44:33;;;;;;;6.35;4.90;;;;;22.00;99787.00;;;;2070861;28;20211;-58
2023/10/13 05:44:55;;;;;;;5.97;5.38;;;;;22.00;99768.00;;;;2059363;28;21028;-59
2023/10/13 05:49:40;;;;;;;5.20;4.60;;;;;22.00;99767.00;;;;2067133;28;20690;-58
2023/10/13 05:50:13;;;;;;;7.82;4.82;;;;;22.00;99820.00;;;;2066094;28;20237;-58
2023/10/13 06:29:33;;;;;;;6.03;4.57;;;;;22.00;99750.00;;;;2064527;28;20308;-58
2023/10/13 06:30:34;;;;;;;4.00;3.60;;;;;22.00;99744.00;;;;2068116;28;20227;-58
2023/10/13 06:31:35;;;;;;;5.90;4.60;;;;;22.00;99740.00;;;;2062936;28;20702;-58
2023/10/13 06:32:37;;;;;;;4.00;3.60;;;;;22.00;99734.00;;;;2065227;28;20214;-57
2023/10/13 06:33:44;;;;;;;4.75;4.07;;;;;22.00;99737.00;;;;2068265;28;20472;-58
2023/10/13 06:34:45;;;;;;;5.28;4.00;;;;;22.00;99738.00;;;;2061246;28;20272;-58
2023/10/13 06:35:50;;;;;;;5.03;4.00;;;;;22.00;99748.00;;;;2055400;28;20924;-57
2023/10/13 06:36:54;;;;;;;5.70;4.80;;;;;22.00;99729.00;;;;2067067;28;20673;-57
2023/10/13 06:37:59;;;;;;;5.25;4.25;;;;;22.00;99728.00;;;;2064331;28;20226;-58
2023/10/13 06:41:30;;;;;;;5.10;4.40;;;;;22.00;99742.00;;;;2069319;28;20248;-57
2023/10/13 06:42:34;;;;;;;4.88;4.38;;;;;22.00;99731.00;;;;2063968;28;20292;-58
2023/10/13 06:43:39;;;;;;;4.10;3.70;;;;;22.00;99722.00;;;;2075109;28;20210;-57
2023/10/13 06:44:41;;;;;;;4.05;3.65;;;;;22.00;99724.00;;;;2069938;28;20245;-57
2023/10/13 06:45:50;;;;;;;3.75;3.45;;;;;22.00;99727.00;;;;2075462;28;20280;-58
2023/10/13 06:46:52;;;;;;;5.22;4.60;;;;;22.00;99724.00;;;;2069884;28;20289;-58
2023/10/13 06:47:53;;;;;;;4.80;4.40;;;;;22.00;99723.00;;;;2052345;28;20241;-57
2023/10/13 06:48:53;;;;;;;9.90;4.03;;;;;22.10;99710.00;;;;2063007;28;20738;-57
2023/10/13 06:49:56;;;;;;;5.07;4.30;;;;;22.10;99717.00;;;;2067627;28;20229;-58
2023/10/13 06:51:01;;;;;;;5.07;4.65;;;;;22.10;99728.00;;;;2065812;28;20214;-57
2023/10/13 06:52:02;;;;;;;5.82;3.72;;;;;22.00;99707.00;;;;2064210;28;20580;-58
2023/10/13 06:53:03;;;;;;;6.78;4.63;;;;;22.10;99714.00;;;;2057539;28;20229;-57
2023/10/13 06:54:09;;;;;;;4.80;4.30;;;;;22.10;99706.00;;;;2067817;28;20228;-57
2023/10/13 06:55:23;;;;;;;4.18;3.70;;;;;22.10;99717.00;;;;2062157;28;20590;-59
2023/10/13 06:56:30;;;;;;;5.30;4.40;;;;;22.10;99721.00;;;;2059678;28;20222;-57
2023/10/13 06:57:34;;;;;;;6.35;3.85;;;;;22.10;99724.00;;;;2051648;28;20586;-57
2023/10/13 06:58:34;;;;;;;7.45;4.28;;;;;22.00;99722.00;;;;2069168;28;20222;-57
2023/10/13 06:59:40;;;;;;;8.10;4.20;;;;;22.10;99720.00;;;;2066757;28;20222;-57
2023/10/13 07:00:40;;;;;;;5.80;4.30;;;;;22.10;99721.00;;;;2067818;28;20217;-58
2023/10/13 07:01:42;;;;;;;5.20;4.13;;;;;22.10;99727.00;;;;2068615;28;20615;-58
2023/10/13 07:02:43;;;;;;;4.40;4.00;;;;;22.10;99723.00;;;;2062112;28;20232;-57
2023/10/13 07:03:48;;;;;;;6.70;4.07;;;;;22.10;99719.00;;;;2068144;28;20285;-57
2023/10/13 07:04:56;;;;;;;6.93;4.10;;;;;22.10;99727.00;;;;2066222;28;20646;-57
2023/10/13 07:05:59;;;;;;;5.80;3.88;;;;;22.10;99746.00;;;;2062919;28;20232;-57